sim
Sign-in with your pilot id or email,
or register
Callsign
Passwort

Schedule Details

Flight Number: RYR6642 (2)
Departure: Edinburgh Airport (EGPH) at 06:30
Arrival: Bratislava M. R. Stefanik Airport (LZIB) at 09:10
Route: Ryanair Passenger Schedule. Enter filed route here before submitting Pirep.

Weather Information
Getting current METAR information for EGPH 231950Z 20012KT 9999 SCT029 12/08 Q1001
Getting current METAR information for LZIB 232000Z 05007KT CAVOK 13/10 Q1017

Schedule Frequency

Route Map